Time;durP1;ratioP1;P1;durP2;ratioP2;P2;SDS_P1;SDS_P2;PMS_P1;PMS_P2;Temp;Humidity;BMP_temperature;BMP_pressure;BME280_temperature;BME280_humidity;BME280_pressure;Samples;Min_cycle;Max_cycle;Signal;HPM_P1;HPM_P2
2022/10/12 00:00:57;;;;;;;;;7.00;5.75;;;;;14.77;51.42;101712.28;4958525;28;47575;-59
2022/10/12 00:03:23;;;;;;;;;9.00;6.25;;;;;14.82;51.59;101698.66;4995419;28;45324;-59
2022/10/12 00:06:18;;;;;;;;;6.00;6.00;;;;;14.82;51.34;101700.56;4994606;28;45446;-60
2022/10/12 00:08:44;;;;;;;;;7.80;5.80;;;;;14.80;51.31;101705.47;4994715;28;45448;-60
2022/10/12 00:11:14;;;;;;;;;6.50;6.00;;;;;14.47;51.47;101663.84;4995161;28;45790;-59
2022/10/12 00:13:40;;;;;;;;;5.60;5.60;;;;;14.82;51.53;101703.34;4977849;28;45466;-58
2022/10/12 00:16:06;;;;;;;;;8.75;5.25;;;;;14.74;51.06;101707.19;4977728;28;45453;-58
2022/10/12 00:18:32;;;;;;;;;6.20;5.80;;;;;14.52;51.69;101676.19;4994375;28;45370;-58
2022/10/12 00:21:07;;;;;;;;;7.00;7.00;;;;;14.71;51.76;101697.41;4995243;28;45350;-61
2022/10/12 00:23:32;;;;;;;;;6.00;5.00;;;;;14.56;51.66;101677.47;4995212;28;45459;-60
2022/10/12 00:26:09;;;;;;;;;8.00;7.00;;;;;14.72;51.54;101707.38;4995535;28;45504;-59
2022/10/12 00:28:34;;;;;;;;;6.20;6.20;;;;;14.75;51.50;101704.22;4994409;28;45571;-58
2022/10/12 00:31:00;;;;;;;;;6.00;5.75;;;;;14.73;51.60;101711.00;4994912;28;46358;-60
2022/10/12 00:33:28;;;;;;;;;9.00;7.50;;;;;14.69;52.02;101702.28;4995279;28;45359;-59
2022/10/12 00:35:54;;;;;;;;;6.40;5.00;;;;;14.69;51.65;101707.81;4995850;28;45259;-58
2022/10/12 00:38:22;;;;;;;;;6.00;5.00;;;;;14.60;51.58;101679.56;4995375;28;45636;-59
2022/10/12 00:40:48;;;;;;;;;8.00;6.40;;;;;14.62;51.13;101676.59;4995500;28;46663;-58
2022/10/12 00:43:30;;;;;;;;;7.25;5.00;;;;;14.75;51.64;101706.13;4995265;28;45319;-59
2022/10/12 00:45:57;;;;;;;;;8.00;6.80;;;;;14.73;51.64;101695.25;4995495;28;45311;-59
2022/10/12 00:48:22;;;;;;;;;8.20;6.00;;;;;14.73;51.60;101706.31;5010918;28;45525;-58
2022/10/12 00:50:48;;;;;;;;;6.25;5.75;;;;;14.71;51.84;101708.44;5027098;28;48457;-59
2022/10/12 00:53:18;;;;;;;;;6.75;6.00;;;;;14.37;52.27;101661.53;5027091;28;45516;-59
2022/10/12 00:55:46;;;;;;;;;6.00;6.00;;;;;14.70;52.04;101706.75;4994248;28;45334;-58
2022/10/12 00:58:12;;;;;;;;;8.00;8.00;;;;;14.77;52.04;101696.56;4994272;28;45392;-59
2022/10/12 01:00:37;;;;;;;;;9.00;5.75;;;;;14.71;51.89;101696.53;4995080;28;45616;-58
2022/10/12 01:03:03;;;;;;;;;7.75;7.00;;;;;14.81;52.07;101699.75;4995166;28;45368;-58
2022/10/12 01:05:28;;;;;;;;;7.00;7.00;;;;;14.59;52.00;101669.59;5027009;28;45396;-58
2022/10/12 01:07:54;;;;;;;;;12.25;9.25;;;;;14.21;52.10;101613.13;4995190;28;45428;-58
2022/10/12 01:10:19;;;;;;;;;15.00;8.75;;;;;14.66;52.82;101672.31;4994604;28;46280;-59
2022/10/12 01:12:46;;;;;;;;;8.25;8.25;;;;;14.62;52.32;101669.16;4994991;28;45291;-59
2022/10/12 01:15:11;;;;;;;;;7.80;6.60;;;;;14.67;52.60;101678.72;4993776;28;45464;-60
2022/10/12 01:17:55;;;;;;;;;9.50;7.50;;;;;14.71;52.37;101694.63;4994177;28;45323;-59
2022/10/12 01:20:33;;;;;;;;;11.00;10.20;;;;;14.71;52.51;101686.34;5012888;28;46239;-59
2022/10/12 01:23:11;;;;;;;;;7.60;7.40;;;;;14.54;52.71;101666.63;4998023;28;45286;-58
2022/10/12 01:26:15;;;;;;;;;10.20;7.00;;;;;14.68;52.50;101686.75;4997250;28;45441;-59
2022/10/12 01:29:18;;;;;;;;;7.80;7.40;;;;;14.63;52.81;101692.94;4997298;28;45382;-57
2022/10/12 01:31:47;;;;;;;;;12.80;9.20;;;;;14.65;52.47;101689.97;4977271;28;45498;-58
2022/10/12 01:34:38;;;;;;;;;7.00;4.20;;;;;14.41;52.85;101661.97;4977124;28;45492;-59
2022/10/12 01:37:20;;;;;;;;;9.80;8.60;;;;;14.34;53.23;101650.06;4977376;28;45272;-59
2022/10/12 01:39:52;;;;;;;;;7.80;7.80;;;;;14.55;53.32;101692.31;4977427;28;45433;-59
2022/10/12 01:42:25;;;;;;;;;7.40;6.40;;;;;14.47;53.17;101674.91;4960799;28;47295;-59
2022/10/12 01:45:00;;;;;;;;;7.20;6.20;;;;;14.26;53.26;101640.13;4977337;28;45436;-58
2022/10/12 01:47:26;;;;;;;;;11.80;7.00;;;;;14.49;52.86;101689.38;4960978;28;45342;-59
2022/10/12 01:49:52;;;;;;;;;9.00;7.00;;;;;14.48;53.10;101681.28;4978699;28;45385;-58
2022/10/12 01:52:24;;;;;;;;;6.80;6.80;;;;;14.49;52.99;101688.50;4978021;28;47133;-58
2022/10/12 01:55:13;;;;;;;;;8.40;7.00;;;;;14.40;53.14;101664.97;4977015;28;45407;-58
2022/10/12 01:58:26;;;;;;;;;9.00;9.00;;;;;14.45;53.14;101681.72;4936070;28;45399;-59
2022/10/12 02:00:54;;;;;;;;;8.80;7.00;;;;;14.42;53.22;101690.44;4975688;28;45555;-59
2022/10/12 02:03:37;;;;;;;;;7.60;7.00;;;;;14.17;53.48;101647.78;4994674;28;46324;-59
2022/10/12 02:06:14;;;;;;;;;12.60;8.20;;;;;14.39;53.24;101677.03;4996296;28;45437;-58
2022/10/12 02:09:13;;;;;;;;;4.60;4.60;;;;;14.34;53.82;101686.84;4996510;28;45513;-59
2022/10/12 02:11:39;;;;;;;;;9.00;9.00;;;;;14.34;53.61;101680.44;4997713;28;45569;-58
2022/10/12 02:14:14;;;;;;;;;8.00;6.75;;;;;14.06;53.43;101629.09;4996158;28;45363;-59
2022/10/12 02:16:46;;;;;;;;;5.40;5.40;;;;;14.36;53.68;101675.59;4996569;28;45389;-58
2022/10/12 02:19:13;;;;;;;;;7.80;6.40;;;;;14.36;53.68;101676.41;4996259;28;45341;-63
2022/10/12 02:21:38;;;;;;;;;6.80;5.20;;;;;14.35;53.31;101673.84;4980187;28;45587;-59
2022/10/12 02:24:05;;;;;;;;;7.00;6.00;;;;;14.07;53.33;101637.16;4997237;28;46047;-59
2022/10/12 02:26:32;;;;;;;;;5.80;5.80;;;;;14.28;53.12;101664.75;4995852;28;45437;-59
2022/10/12 02:28:58;;;;;;;;;9.20;6.40;;;;;14.29;53.39;101660.94;4979786;28;45751;-60
2022/10/12 02:31:38;;;;;;;;;8.75;6.25;;;;;14.26;53.57;101662.22;5028460;28;45411;-59
2022/10/12 02:34:12;;;;;;;;;7.80;6.60;;;;;14.07;53.55;101631.66;4997011;28;45731;-58
2022/10/12 02:36:53;;;;;;;;;9.40;7.60;;;;;14.19;53.48;101653.09;4995273;28;45494;-59
2022/10/12 02:39:19;;;;;;;;;8.20;7.20;;;;;13.95;53.82;101617.66;4996785;28;45401;-59
2022/10/12 02:41:48;;;;;;;;;8.60;7.00;;;;;14.14;53.67;101650.94;4997310;28;45959;-63
2022/10/12 02:44:15;;;;;;;;;6.00;6.00;;;;;14.06;53.83;101645.66;4996816;28;45314;-58
2022/10/12 02:46:41;;;;;;;;;11.00;8.40;;;;;14.08;53.85;101640.75;4978964;28;45311;-58
2022/10/12 02:49:06;;;;;;;;;7.75;5.00;;;;;14.10;53.54;101642.25;5028910;28;45357;-59
2022/10/12 02:51:32;;;;;;;;;7.25;7.25;;;;;14.09;54.35;101642.50;5012113;28;45598;-58
2022/10/12 02:53:57;;;;;;;;;9.75;7.50;;;;;14.04;54.26;101636.75;5011933;28;47195;-57
2022/10/12 02:56:23;;;;;;;;;7.25;5.00;;;;;14.03;53.86;101638.66;5011612;28;45420;-58
2022/10/12 02:58:48;;;;;;;;;10.00;10.00;;;;;14.00;54.14;101644.59;4996967;28;45505;-58
2022/10/12 03:01:15;;;;;;;;;6.75;6.00;;;;;13.96;54.20;101644.19;4997052;28;45357;-58
2022/10/12 03:03:41;;;;;;;;;8.20;6.00;;;;;13.96;54.01;101635.03;4996097;28;46461;-58
2022/10/12 03:06:07;;;;;;;;;6.25;6.25;;;;;13.98;54.09;101643.13;4995098;28;45397;-58
2022/10/12 03:08:32;;;;;;;;;8.25;6.25;;;;;13.81;54.04;101613.19;4996181;28;45354;-58
2022/10/12 03:11:04;;;;;;;;;8.25;8.25;;;;;13.79;54.39;101621.69;4996654;28;45407;-58
2022/10/12 03:13:30;;;;;;;;;7.40;7.40;;;;;13.68;54.15;101591.97;4996328;28;46489;-59
2022/10/12 03:16:06;;;;;;;;;8.50;8.25;;;;;13.81;54.66;101625.06;4996216;28;45329;-58
2022/10/12 03:18:33;;;;;;;;;6.40;5.40;;;;;13.89;54.64;101634.19;4995305;28;45370;-58
2022/10/12 03:20:58;;;;;;;;;7.00;5.80;;;;;13.63;54.50;101598.13;4996207;28;45401;-58
2022/10/12 03:23:24;;;;;;;;;10.00;7.75;;;;;13.81;54.36;101621.47;4996330;28;46840;-58
2022/10/12 03:25:49;;;;;;;;;8.25;7.50;;;;;13.85;54.30;101632.91;4995976;28;45354;-58
2022/10/12 03:28:15;;;;;;;;;8.50;7.50;;;;;13.82;54.69;101624.00;4996506;28;45337;-58
2022/10/12 03:30:41;;;;;;;;;6.75;6.00;;;;;13.81;54.83;101635.25;4988433;28;45480;-58
2022/10/12 03:33:07;;;;;;;;;10.00;7.80;;;;;13.79;54.64;101629.97;4996100;28;46121;-58
2022/10/12 03:35:32;;;;;;;;;9.50;9.50;;;;;13.79;54.87;101635.50;4996472;28;45416;-58
2022/10/12 03:37:59;;;;;;;;;11.20;8.60;;;;;13.77;54.69;101634.81;4995902;28;45387;-59
2022/10/12 03:40:24;;;;;;;;;7.00;6.25;;;;;13.78;54.72;101633.75;4994526;28;45370;-58
2022/10/12 03:42:50;;;;;;;;;11.25;8.50;;;;;13.69;55.12;101641.41;4994821;28;45866;-59
2022/10/12 03:45:15;;;;;;;;;8.50;8.25;;;;;13.60;55.56;101637.16;4995911;28;45376;-60
2022/10/12 03:47:41;;;;;;;;;7.50;7.00;;;;;13.57;55.42;101637.59;4996117;28;45315;-58
2022/10/12 03:50:07;;;;;;;;;10.75;8.50;;;;;13.48;56.12;101641.59;4996143;28;45513;-59
2022/10/12 03:52:32;;;;;;;;;12.00;7.25;;;;;13.52;55.91;101638.22;4995985;28;45357;-59
2022/10/12 03:54:58;;;;;;;;;10.00;7.00;;;;;13.60;55.66;101637.16;4995666;28;45418;-59
2022/10/12 03:57:23;;;;;;;;;11.25;10.75;;;;;13.67;55.62;101639.94;4995895;28;45350;-59
2022/10/12 03:59:49;;;;;;;;;9.00;6.75;;;;;13.69;55.47;101638.66;4995942;28;45333;-56
2022/10/12 04:02:14;;;;;;;;;7.00;7.00;;;;;13.73;55.42;101643.75;4995552;28;45726;-57
2022/10/12 04:04:40;;;;;;;;;6.75;6.75;;;;;13.72;55.47;101637.38;4996009;28;45209;-58
2022/10/12 04:07:06;;;;;;;;;9.00;6.75;;;;;13.66;55.58;101641.00;4995395;28;45342;-58
2022/10/12 04:09:31;;;;;;;;;11.75;7.00;;;;;13.62;55.77;101635.06;4995784;28;45516;-59
2022/10/12 04:11:57;;;;;;;;;7.50;7.50;;;;;13.54;55.87;101632.47;4995038;28;45533;-58
2022/10/12 04:14:22;;;;;;;;;8.25;6.75;;;;;13.53;55.83;101631.66;4995715;28;45288;-58
2022/10/12 04:16:48;;;;;;;;;5.50;5.50;;;;;13.54;56.18;101636.09;4995401;28;45825;-59
2022/10/12 04:19:13;;;;;;;;;11.00;6.75;;;;;13.59;56.13;101632.69;4995620;28;45903;-59
2022/10/12 04:21:39;;;;;;;;;8.50;8.50;;;;;13.66;56.04;101638.25;4995126;28;45739;-58
2022/10/12 04:24:05;;;;;;;;;13.60;10.40;;;;;13.67;56.15;101649.03;4995094;28;45387;-59
2022/10/12 04:26:31;;;;;;;;;12.50;7.75;;;;;13.68;56.14;101645.22;4995612;28;45715;-58
2022/10/12 04:28:56;;;;;;;;;9.75;7.25;;;;;13.46;56.12;101603.22;4995107;28;45493;-59
2022/10/12 04:31:22;;;;;;;;;10.25;7.00;;;;;13.73;55.70;101649.25;4977246;28;46214;-58
2022/10/12 04:33:48;;;;;;;;;7.25;6.75;;;;;13.71;55.56;101652.22;4975288;28;45332;-58
2022/10/12 04:36:13;;;;;;;;;10.00;8.25;;;;;13.67;55.43;101651.78;4975598;28;45431;-60
2022/10/12 04:38:39;;;;;;;;;9.00;9.00;;;;;13.68;55.66;101655.41;4975902;28;45519;-58
2022/10/12 04:41:04;;;;;;;;;7.25;6.50;;;;;13.48;55.67;101627.78;4975355;28;45619;-58
2022/10/12 04:43:30;;;;;;;;;7.50;6.50;;;;;13.62;55.86;101651.59;4975736;28;45467;-58
2022/10/12 04:45:56;;;;;;;;;11.25;9.25;;;;;13.57;56.14;101645.00;4974320;28;45319;-58
2022/10/12 04:48:22;;;;;;;;;11.20;8.00;;;;;13.57;55.78;101656.03;4974246;28;45446;-58
2022/10/12 04:50:48;;;;;;;;;8.20;7.00;;;;;13.14;55.90;101584.44;4975289;28;46271;-61
2022/10/12 04:53:13;;;;;;;;;8.00;7.00;;;;;13.53;55.86;101652.84;4973971;28;45655;-58
2022/10/12 04:55:39;;;;;;;;;5.50;5.50;;;;;13.50;55.97;101648.59;4978575;28;45448;-58
2022/10/12 04:58:04;;;;;;;;;6.25;6.25;;;;;13.50;56.08;101642.25;4979091;28;45431;-59
2022/10/12 05:00:30;;;;;;;;;7.00;6.00;;;;;13.28;55.96;101606.53;4978412;28;45572;-58
2022/10/12 05:02:55;;;;;;;;;9.50;9.50;;;;;13.48;55.77;101647.09;4978493;28;45390;-59
2022/10/12 05:05:21;;;;;;;;;8.25;7.00;;;;;13.44;55.73;101635.59;4978804;28;45299;-59
2022/10/12 05:07:46;;;;;;;;;10.25;8.25;;;;;13.48;55.70;101641.59;4978734;28;45351;-58
2022/10/12 05:10:12;;;;;;;;;11.75;11.00;;;;;13.45;55.92;101640.06;4978778;28;45504;-58
2022/10/12 05:12:37;;;;;;;;;5.25;4.25;;;;;13.45;55.83;101642.81;4978154;28;45389;-59
2022/10/12 05:15:03;;;;;;;;;10.00;7.00;;;;;13.46;56.42;101635.44;4978897;28;45378;-57
2022/10/12 05:17:28;;;;;;;;;10.00;8.75;;;;;13.47;56.48;101639.88;4978526;28;45500;-58
2022/10/12 05:19:54;;;;;;;;;7.00;7.00;;;;;13.46;56.02;101641.81;4978320;28;46326;-58
2022/10/12 05:22:19;;;;;;;;;9.00;8.50;;;;;13.23;56.55;101603.56;4977061;28;45257;-58
2022/10/12 05:24:45;;;;;;;;;8.25;6.00;;;;;13.44;55.92;101638.38;4978392;28;45431;-59
2022/10/12 05:27:10;;;;;;;;;7.25;7.25;;;;;13.44;55.98;101645.81;4978830;28;45427;-58
2022/10/12 05:29:36;;;;;;;;;11.75;7.00;;;;;13.34;56.17;101630.50;4980784;28;45542;-59
2022/10/12 05:32:01;;;;;;;;;8.00;8.00;;;;;13.35;56.40;101648.75;4998068;28;45377;-59
2022/10/12 05:34:27;;;;;;;;;8.75;7.75;;;;;12.97;56.42;101583.97;4998024;28;45303;-58
2022/10/12 05:36:52;;;;;;;;;6.75;6.75;;;;;13.38;56.19;101651.09;4998371;28;45467;-58
2022/10/12 05:39:18;;;;;;;;;8.75;8.75;;;;;13.37;56.48;101654.06;4997863;28;46625;-57
2022/10/12 05:41:43;;;;;;;;;5.50;5.50;;;;;13.36;56.28;101644.94;4997601;28;45812;-59
2022/10/12 05:44:09;;;;;;;;;11.25;9.75;;;;;13.36;56.24;101647.69;4998103;28;45388;-59
2022/10/12 05:46:34;;;;;;;;;7.75;6.25;;;;;13.34;56.47;101651.72;4980963;28;45469;-59
2022/10/12 05:49:00;;;;;;;;;12.50;9.50;;;;;13.13;56.65;101615.00;4973484;28;45439;-59
2022/10/12 05:51:25;;;;;;;;;11.25;7.25;;;;;13.31;56.70;101652.13;4976249;28;45457;-59
2022/10/12 05:53:51;;;;;;;;;13.00;10.00;;;;;13.31;56.72;101650.22;4978101;28;45351;-59
2022/10/12 05:56:16;;;;;;;;;10.25;7.00;;;;;13.26;57.04;101636.22;4978294;28;45297;-59
2022/10/12 05:58:42;;;;;;;;;10.00;7.50;;;;;13.29;56.78;101644.91;4977570;28;45507;-59
2022/10/12 06:01:10;;;;;;;;;8.25;8.00;;;;;13.28;57.08;101650.63;4977866;28;45379;-59
2022/10/12 06:03:35;;;;;;;;;7.80;7.80;;;;;13.22;56.88;101629.41;4977798;28;45300;-59
2022/10/12 06:06:01;;;;;;;;;11.00;10.50;;;;;13.21;57.22;101639.59;4977275;28;45457;-60
2022/10/12 06:08:28;;;;;;;;;9.80;8.80;;;;;13.23;57.05;101640.22;4975989;28;46012;-59
2022/10/12 06:10:53;;;;;;;;;11.20;10.20;;;;;13.27;56.99;101644.28;4977489;28;45434;-60
2022/10/12 06:13:19;;;;;;;;;10.00;10.00;;;;;13.29;57.23;101647.66;4977823;28;45454;-57
2022/10/12 06:15:45;;;;;;;;;11.75;10.00;;;;;13.25;57.54;101635.34;4977671;28;45378;-58
2022/10/12 06:18:11;;;;;;;;;12.40;10.40;;;;;13.07;56.94;101605.63;4977590;28;45750;-57
2022/10/12 06:20:37;;;;;;;;;15.00;13.20;;;;;13.28;57.47;101643.22;4977551;28;45352;-57
2022/10/12 06:23:02;;;;;;;;;10.50;9.75;;;;;12.92;57.02;101580.16;4977361;28;45303;-57
2022/10/12 06:25:28;;;;;;;;;10.50;10.00;;;;;13.34;56.99;101644.28;4976506;28;45572;-59
2022/10/12 06:27:53;;;;;;;;;12.75;10.00;;;;;13.33;57.06;101648.09;4977181;28;45370;-58
2022/10/12 06:30:19;;;;;;;;;13.25;10.75;;;;;13.30;56.90;101659.56;4983480;28;45282;-57
2022/10/12 06:32:44;;;;;;;;;17.00;14.00;;;;;13.25;57.04;101651.06;4997056;28;45394;-60
2022/10/12 06:35:10;;;;;;;;;13.50;12.00;;;;;13.25;57.54;101662.09;4997335;28;45659;-59
2022/10/12 06:37:36;;;;;;;;;12.25;11.75;;;;;13.24;57.27;101666.75;4996804;28;45924;-58
2022/10/12 06:40:01;;;;;;;;;14.75;13.50;;;;;13.26;57.24;101663.78;4996707;28;45626;-59
2022/10/12 06:42:27;;;;;;;;;16.00;9.50;;;;;13.22;57.45;101656.97;4996880;28;45830;-57
2022/10/12 06:44:52;;;;;;;;;19.00;13.50;;;;;13.28;57.29;101678.19;4996014;28;45476;-57
2022/10/12 06:47:18;;;;;;;;;14.00;14.00;;;;;13.27;57.37;101671.84;4977852;28;46476;-58
2022/10/12 06:49:43;;;;;;;;;17.50;14.75;;;;;13.24;57.13;101666.75;5014407;28;45966;-59
2022/10/12 06:52:09;;;;;;;;;14.25;14.25;;;;;13.26;56.90;101678.44;4996637;28;45405;-58
2022/10/12 06:54:34;;;;;;;;;18.25;16.25;;;;;13.26;57.09;101674.81;4995623;28;45709;-57
2022/10/12 06:57:00;;;;;;;;;16.25;14.50;;;;;13.29;57.21;101680.75;4996615;28;46382;-59
2022/10/12 06:59:25;;;;;;;;;15.25;14.25;;;;;13.33;57.32;101678.44;4996369;28;45468;-60
2022/10/12 07:01:51;;;;;;;;;11.75;11.75;;;;;13.29;57.25;101675.25;4996576;28;45322;-59
2022/10/12 07:04:17;;;;;;;;;17.25;14.00;;;;;13.29;57.02;101682.69;4996398;28;45313;-58
2022/10/12 07:06:43;;;;;;;;;14.40;12.60;;;;;13.15;57.33;101668.00;4996492;28;45516;-56
2022/10/12 07:09:08;;;;;;;;;14.25;12.75;;;;;13.30;57.39;101687.13;4996162;28;45477;-57
2022/10/12 07:11:34;;;;;;;;;20.75;15.50;;;;;13.31;57.40;101688.81;4996543;28;45156;-57
2022/10/12 07:13:59;;;;;;;;;22.50;15.00;;;;;13.31;57.32;101677.81;4996552;28;45179;-57
2022/10/12 07:16:25;;;;;;;;;20.50;17.50;;;;;13.36;57.57;101680.78;4988032;28;46032;-56
2022/10/12 07:18:51;;;;;;;;;21.00;16.25;;;;;13.37;57.31;101685.25;4995315;28;45401;-59
2022/10/12 07:21:16;;;;;;;;;18.75;15.50;;;;;13.15;57.26;101651.44;4995148;28;45485;-58
2022/10/12 07:23:42;;;;;;;;;14.00;14.00;;;;;13.38;57.29;101686.94;4994766;28;45422;-57
2022/10/12 07:26:08;;;;;;;;;14.00;14.00;;;;;13.22;57.01;101659.72;4995207;28;46724;-57
2022/10/12 07:28:34;;;;;;;;;15.20;14.20;;;;;13.19;57.20;101658.25;4977502;28;45414;-57
2022/10/12 07:31:01;;;;;;;;;15.20;13.40;;;;;13.42;57.30;101693.75;4994727;28;45449;-59
2022/10/12 07:33:30;;;;;;;;;13.60;12.60;;;;;13.45;57.11;101697.13;4993395;28;45611;-59
2022/10/12 07:35:56;;;;;;;;;18.80;16.20;;;;;13.48;57.04;101696.75;4995820;28;45486;-58
2022/10/12 07:38:21;;;;;;;;;18.50;16.75;;;;;13.49;56.58;101703.94;4994157;28;45516;-60
2022/10/12 07:40:47;;;;;;;;;20.25;17.00;;;;;13.48;56.54;101699.50;4995250;28;45536;-61
2022/10/12 07:43:12;;;;;;;;;18.50;16.75;;;;;13.52;56.67;101709.06;4996692;28;45933;-60
2022/10/12 07:45:38;;;;;;;;;24.50;19.75;;;;;13.50;56.80;101697.41;4996040;28;46563;-60
2022/10/12 07:48:04;;;;;;;;;20.75;17.50;;;;;13.53;56.54;101703.34;4994680;28;45481;-61
2022/10/12 07:50:30;;;;;;;;;19.50;17.25;;;;;13.50;56.73;101698.22;4961620;28;45556;-59
2022/10/12 07:52:55;;;;;;;;;18.50;18.50;;;;;13.38;56.64;101677.81;4969177;28;45344;-61
2022/10/12 07:55:21;;;;;;;;;16.00;14.00;;;;;13.60;57.19;101710.78;4971419;28;46378;-60
2022/10/12 07:57:47;;;;;;;;;23.75;19.50;;;;;13.61;56.46;101720.75;4986818;28;45528;-60
2022/10/12 08:00:12;;;;;;;;;25.80;20.00;;;;;13.64;56.47;101704.66;4995027;28;45364;-60
2022/10/12 08:02:38;;;;;;;;;26.50;21.25;;;;;13.65;56.70;101720.13;4994269;28;45357;-60
2022/10/12 08:05:04;;;;;;;;;27.75;22.50;;;;;13.49;56.27;101679.13;4994232;28;45550;-60
2022/10/12 08:07:30;;;;;;;;;22.60;21.40;;;;;13.70;56.69;101719.50;4993154;28;45409;-61
2022/10/12 08:09:55;;;;;;;;;27.25;23.00;;;;;13.46;56.43;101674.03;4993928;28;45308;-61
2022/10/12 08:12:21;;;;;;;;;22.50;21.50;;;;;13.76;56.66;101724.19;4994391;28;45624;-59
2022/10/12 08:14:47;;;;;;;;;24.50;21.50;;;;;13.76;57.01;101729.69;4993383;28;46461;-60
2022/10/12 08:17:12;;;;;;;;;21.50;19.75;;;;;13.73;56.99;101730.13;5026056;28;45455;-61
2022/10/12 08:19:38;;;;;;;;;21.50;19.25;;;;;13.71;56.76;101715.69;4991481;28;45372;-60
2022/10/12 08:22:03;;;;;;;;;24.50;23.00;;;;;13.76;56.66;101726.94;4994254;28;45595;-60
2022/10/12 08:24:29;;;;;;;;;26.50;23.50;;;;;13.80;56.92;101731.00;4992121;28;46811;-60
2022/10/12 08:26:55;;;;;;;;;27.25;24.00;;;;;13.84;56.90;101728.66;4992228;28;45488;-61
2022/10/12 08:29:20;;;;;;;;;24.00;23.50;;;;;13.83;56.15;101718.69;4993475;28;45419;-61
2022/10/12 08:31:49;;;;;;;;;32.25;25.00;;;;;13.90;56.35;101724.19;4992828;28;45580;-62
2022/10/12 08:34:15;;;;;;;;;25.00;22.80;;;;;13.92;56.96;101724.84;4993664;28;46568;-61
2022/10/12 08:36:41;;;;;;;;;28.80;23.00;;;;;13.96;56.71;101726.97;4993222;28;45393;-58
2022/10/12 08:39:07;;;;;;;;;24.75;21.25;;;;;13.98;56.54;101723.16;4992476;28;45446;-62
2022/10/12 08:42:10;;;;;;;;;23.60;21.60;;;;;14.02;56.72;101721.66;4993845;28;45410;-60
2022/10/12 08:45:06;;;;;;;;;30.20;27.80;;;;;14.06;56.65;101728.47;4992436;28;45472;-60
2022/10/12 08:47:33;;;;;;;;;33.40;24.80;;;;;13.96;56.50;101704.91;4993363;28;45582;-61
2022/10/12 08:49:59;;;;;;;;;30.80;25.40;;;;;14.05;56.42;101704.69;4975442;28;45448;-60
2022/10/12 08:52:29;;;;;;;;;29.50;23.50;;;;;14.04;56.82;101709.34;4977902;28;45478;-61
2022/10/12 08:54:58;;;;;;;;;28.00;26.00;;;;;14.01;56.30;101682.19;4972377;28;46562;-61
2022/10/12 08:57:23;;;;;;;;;24.80;23.20;;;;;14.27;55.93;101732.06;4989296;28;45483;-61
2022/10/12 08:59:49;;;;;;;;;30.25;26.00;;;;;14.34;56.30;101735.69;4978492;28;45500;-64
2022/10/12 09:02:30;;;;;;;;;27.00;27.00;;;;;14.21;56.32;101709.78;4982515;28;45728;-62
2022/10/12 09:05:08;;;;;;;;;29.40;27.20;;;;;14.43;55.94;101739.94;4965207;28;45591;-61
2022/10/12 09:07:41;;;;;;;;;29.20;24.60;;;;;14.45;56.44;101723.13;4988630;28;45836;-60
2022/10/12 09:10:22;;;;;;;;;30.60;25.40;;;;;14.35;56.39;101701.47;4976321;28;45357;-62
2022/10/12 09:13:09;;;;;;;;;35.00;30.80;;;;;14.58;56.27;101728.66;5008063;28;45384;-60
2022/10/12 09:15:47;;;;;;;;;25.00;25.00;;;;;14.54;56.59;101732.06;4991273;28;45376;-65
2022/10/12 09:18:19;;;;;;;;;28.80;24.00;;;;;13.94;56.52;101631.66;4992244;28;45855;-64
2022/10/12 09:20:54;;;;;;;;;34.00;26.80;;;;;14.47;57.16;101723.78;4971792;28;45433;-65
2022/10/12 09:23:29;;;;;;;;;31.80;29.20;;;;;14.45;57.53;101728.66;4988396;27;45814;-68
2022/10/12 09:26:15;;;;;;;;;31.80;29.00;;;;;14.47;57.67;101718.28;4991378;28;45669;-65
2022/10/12 09:28:52;;;;;;;;;33.60;33.00;;;;;14.50;57.57;101717.81;4993323;28;45324;-63
2022/10/12 09:31:48;;;;;;;;;34.80;27.80;;;;;14.52;58.11;101720.38;4975189;28;45554;-66
2022/10/12 09:34:14;;;;;;;;;28.80;28.80;;;;;14.36;58.30;101676.41;4992921;28;45343;-65
2022/10/12 09:36:40;;;;;;;;;32.25;28.50;;;;;14.68;58.04;101716.31;4992886;28;45815;-65
2022/10/12 09:39:14;;;;;;;;;34.40;29.00;;;;;14.65;58.06;101698.25;4991086;28;45657;-67
2022/10/12 09:41:41;;;;;;;;;31.00;28.40;;;;;14.85;58.10;101709.31;4993157;28;45494;-64
2022/10/12 09:44:08;;;;;;;;;34.00;32.40;;;;;14.98;57.70;101708.41;4993797;28;45351;-63
2022/10/12 09:46:54;;;;;;;;;33.60;29.60;;;;;14.81;57.60;101672.09;4994646;28;46299;-62
2022/10/12 09:49:20;;;;;;;;;35.00;28.80;;;;;15.05;57.47;101672.41;4985338;28;45383;-63
2022/10/12 09:51:46;;;;;;;;;35.00;32.00;;;;;15.40;57.00;101694.19;4988091;28;45378;-63
2022/10/12 09:54:18;;;;;;;;;69.75;46.25;;;;;15.46;56.43;101675.84;4995963;28;45533;-62
2022/10/12 09:56:51;;;;;;;;;38.20;33.00;;;;;15.58;55.90;101663.00;4988444;28;45618;-63
2022/10/12 09:59:35;;;;;;;;;36.20;33.40;;;;;15.70;55.61;101665.88;4972005;28;45720;-68
2022/10/12 10:02:13;;;;;;;;;32.40;28.60;;;;;16.01;56.12;101704.84;4990145;28;45454;-67
2022/10/12 10:04:39;;;;;;;;;33.20;28.20;;;;;15.96;55.78;101663.19;4990149;28;45346;-64
2022/10/12 10:07:32;;;;;;;;;32.75;31.75;;;;;16.38;56.02;101693.03;4994365;28;46056;-66
2022/10/12 10:10:22;;;;;;;;;32.00;27.60;;;;;16.57;55.69;101693.94;4975818;28;45426;-61
2022/10/12 10:12:51;;;;;;;;;28.80;27.00;;;;;16.66;55.88;101686.16;4986255;28;45508;-60
2022/10/12 10:15:20;;;;;;;;;23.40;23.40;;;;;16.55;55.74;101648.97;4994418;28;45350;-60
2022/10/12 10:17:52;;;;;;;;;22.60;22.60;;;;;16.79;56.22;101680.47;4995501;28;46791;-62
2022/10/12 10:20:27;;;;;;;;;24.60;22.20;;;;;16.87;55.81;101667.38;4992406;28;45407;-62
2022/10/12 10:22:53;;;;;;;;;20.20;18.20;;;;;17.00;55.72;101671.91;4993942;28;45773;-63
2022/10/12 10:25:19;;;;;;;;;25.25;22.50;;;;;17.00;55.44;101652.47;4994180;28;45621;-68
2022/10/12 10:27:45;;;;;;;;;21.40;18.20;;;;;17.25;55.11;101659.88;4977186;28;45975;-60
2022/10/12 10:30:14;;;;;;;;;20.20;17.60;;;;;17.55;54.98;101682.06;4989603;28;45426;-61
2022/10/12 10:32:39;;;;;;;;;23.20;20.80;;;;;17.67;54.72;101659.88;4987949;28;45402;-61
2022/10/12 10:35:25;;;;;;;;;21.00;18.00;;;;;17.91;54.45;101668.28;4995542;28;45544;-63
2022/10/12 10:37:54;;;;;;;;;15.80;15.20;;;;;18.08;54.10;101670.41;4993822;28;46242;-64
2022/10/12 10:40:23;;;;;;;;;18.40;18.20;;;;;18.35;53.32;101667.13;4980287;28;45391;-58
2022/10/12 10:42:51;;;;;;;;;20.00;18.60;;;;;18.64;52.76;101683.91;4987586;28;45496;-60
2022/10/12 10:45:32;;;;;;;;;19.00;19.00;;;;;18.80;51.29;101674.81;4994210;28;45300;-60
2022/10/12 10:48:01;;;;;;;;;16.40;16.40;;;;;18.69;51.13;101636.75;4982102;28;46424;-61
2022/10/12 10:50:35;;;;;;;;;14.20;13.20;;;;;18.94;50.22;101667.03;4973880;28;45863;-61
2022/10/12 10:53:03;;;;;;;;;16.40;14.60;;;;;19.08;50.26;101666.78;4976584;28;45521;-60
2022/10/12 10:55:43;;;;;;;;;18.00;15.80;;;;;19.18;49.58;101655.88;4977023;28;45514;-61
2022/10/12 10:58:58;;;;;;;;;17.20;16.20;;;;;19.28;49.45;101654.38;4975784;28;45669;-62
2022/10/12 11:01:42;;;;;;;;;16.40;15.40;;;;;19.35;49.53;101642.00;4959002;28;45458;-62
2022/10/12 11:04:14;;;;;;;;;23.20;20.00;;;;;19.34;49.42;101670.94;4976210;28;45424;-60
2022/10/12 11:06:41;;;;;;;;;20.20;17.80;;;;;19.13;49.67;101668.81;4975889;28;45793;-60
2022/10/12 11:09:12;;;;;;;;;18.20;14.00;;;;;18.73;50.47;101643.50;4943019;28;46808;-55
2022/10/12 11:11:38;;;;;;;;;20.80;17.80;;;;;18.51;51.12;101643.31;4958812;28;45431;-53
2022/10/12 11:14:29;;;;;;;;;14.25;12.25;;;;;18.41;51.52;101664.22;4975490;28;45389;-56
2022/10/12 11:17:03;;;;;;;;;15.80;15.80;;;;;18.24;51.75;101666.88;4975307;28;45493;-58
2022/10/12 11:19:35;;;;;;;;;18.00;17.00;;;;;18.18;52.30;101664.25;4975489;28;45775;-57
2022/10/12 11:22:21;;;;;;;;;16.60;14.80;;;;;18.05;52.28;101663.38;4976166;28;45784;-59
2022/10/12 11:24:48;;;;;;;;;17.00;15.00;;;;;17.99;52.92;101654.03;4976751;28;45409;-59
2022/10/12 11:27:30;;;;;;;;;24.60;21.40;;;;;17.89;52.68;101657.41;4916908;28;47848;-60